Obera, Argentina
Current Conditions -  °F | °C
As of 6:00 PM on Friday 24 Oct 2014 (Local Time) from SARP Reporting Station
Clear Clear  
Wind Chill: 91°   Ceiling: Unl
Heat Index: 91°   Visibility: 6mi
Dew Point: 61°   Wind: 8mph
Humidity: 36%   Direction: 200°SSW
Pressure: 29.83"   Gusts: NA
Location:  27.48°S, 55.13°W
Report Text: SARP 242100Z 20007KT CAVOK 33/16 Q1010
Loading
Personal Weather Stations






























Interactive Weather Map New forecast layout! Learn more

10-Day Weather Forecast

Advertisements
Track Severe Weather on mobile